createdAt,value
2018-10-03T00:02:38.772Z,85.46
2018-10-03T00:05:45.868Z,86.55
2018-10-03T00:08:52.606Z,86.38
2018-10-03T00:12:00.121Z,85.33
2018-10-03T00:15:05.905Z,86.68
2018-10-03T00:18:12.193Z,87.53
2018-10-03T00:21:19.257Z,85.87
2018-10-03T00:24:25.282Z,85.67
2018-10-03T00:27:30.354Z,86.55
2018-10-03T00:30:37.109Z,86.96
2018-10-03T00:33:43.834Z,86.64
2018-10-03T00:36:49.819Z,86.13
2018-10-03T00:39:56.713Z,85.60
2018-10-03T00:43:04.938Z,84.81
2018-10-03T00:46:11.398Z,85.19
2018-10-03T00:49:17.389Z,85.60
2018-10-03T00:52:22.397Z,86.66
2018-10-03T00:55:28.525Z,85.49
2018-10-03T00:58:34.414Z,86.91
2018-10-03T01:01:39.411Z,86.42
2018-10-03T01:04:45.249Z,86.68
2018-10-03T01:07:51.066Z,86.64
2018-10-03T01:10:56.153Z,85.85
2018-10-03T01:14:02.045Z,86.65
2018-10-03T01:17:07.146Z,86.73
2018-10-03T01:20:12.868Z,86.79
2018-10-03T01:23:21.551Z,86.02
2018-10-03T01:26:26.559Z,85.39
2018-10-03T01:29:32.556Z,86.52
2018-10-03T01:32:37.580Z,86.21
2018-10-03T01:35:43.778Z,86.90
2018-10-03T01:38:49.774Z,86.48
2018-10-03T01:41:55.734Z,86.06
2018-10-03T01:45:01.366Z,85.54
2018-10-03T01:48:06.455Z,86.58
2018-10-03T01:51:11.597Z,86.30
2018-10-03T01:54:17.386Z,84.89
2018-10-03T01:57:25.628Z,85.09
2018-10-03T02:00:31.426Z,84.98
2018-10-03T02:03:36.458Z,84.98
2018-10-03T02:06:41.539Z,85.64
2018-10-03T02:09:47.894Z,86.29
2018-10-03T02:12:54.063Z,86.11
2018-10-03T02:15:59.248Z,85.44
2018-10-03T02:19:05.249Z,86.60
2018-10-03T02:22:11.217Z,87.60
2018-10-03T02:25:17.287Z,87.01
2018-10-03T02:28:23.885Z,86.42
2018-10-03T02:31:31.169Z,86.24
2018-10-03T02:34:49.711Z,85.55
2018-10-03T02:37:57.378Z,85.38
2018-10-03T02:41:06.991Z,85.24
2018-10-03T02:44:14.052Z,84.44
2018-10-03T02:47:26.017Z,85.55
2018-10-03T02:50:35.159Z,85.51
2018-10-03T02:53:41.810Z,86.06
2018-10-03T02:56:48.505Z,84.48
2018-10-03T02:59:55.054Z,84.60
2018-10-03T03:03:00.822Z,85.28
2018-10-03T03:06:07.074Z,86.75
2018-10-03T03:09:13.994Z,85.57
2018-10-03T03:12:20.214Z,85.10
2018-10-03T03:15:25.249Z,85.14
2018-10-03T03:18:30.277Z,84.84
2018-10-03T03:21:35.596Z,84.66
2018-10-03T03:24:40.635Z,85.47
2018-10-03T03:27:45.626Z,84.97
2018-10-03T03:30:51.467Z,85.11
2018-10-03T03:33:57.245Z,85.16
2018-10-03T03:37:03.834Z,85.07
2018-10-03T03:40:09.618Z,84.52
2018-10-03T03:43:16.634Z,84.31
2018-10-03T03:46:21.645Z,83.92
2018-10-03T03:49:28.134Z,84.64
2018-10-03T03:52:34.214Z,85.27
2018-10-03T03:55:39.193Z,84.59
2018-10-03T03:58:44.324Z,85.29
2018-10-03T04:01:50.137Z,84.82
2018-10-03T04:04:57.625Z,85.29
2018-10-03T04:08:03.320Z,85.29
2018-10-03T04:11:08.384Z,84.03
2018-10-03T04:14:14.657Z,85.51
2018-10-03T04:17:20.385Z,85.90
2018-10-03T04:20:26.171Z,86.15
2018-10-03T04:23:32.200Z,85.17
2018-10-03T04:26:39.257Z,85.72
2018-10-03T04:29:45.554Z,84.43
2018-10-03T04:32:51.377Z,84.90
2018-10-03T04:35:57.116Z,84.85
2018-10-03T04:39:04.915Z,84.96
2018-10-03T04:42:11.279Z,84.35
2018-10-03T04:45:17.021Z,84.85
2018-10-03T04:48:22.044Z,86.17
2018-10-03T04:51:27.990Z,85.83
2018-10-03T04:54:34.423Z,84.89
2018-10-03T04:57:40.724Z,85.14
2018-10-03T05:00:46.556Z,84.50
2018-10-03T05:03:52.505Z,85.54
2018-10-03T05:06:58.279Z,84.74
2018-10-03T05:10:03.402Z,84.27
2018-10-03T05:14:55.694Z,84.72
2018-10-03T05:18:01.753Z,85.28
2018-10-03T05:21:09.326Z,84.54
2018-10-03T05:24:15.438Z,84.87
2018-10-03T05:27:20.455Z,84.57
2018-10-03T05:30:26.601Z,84.83
2018-10-03T05:33:33.033Z,83.73
2018-10-03T05:36:38.870Z,85.51
2018-10-03T05:39:43.938Z,85.95
2018-10-03T05:42:50.525Z,85.38
2018-10-03T05:45:55.595Z,84.19
2018-10-03T05:49:01.426Z,83.20
2018-10-03T05:52:08.454Z,83.86
2018-10-03T05:55:13.618Z,83.51
2018-10-03T05:58:18.640Z,84.23
2018-10-03T06:01:24.832Z,84.37
2018-10-03T06:04:30.469Z,83.82
2018-10-03T06:07:36.653Z,83.34
2018-10-03T06:10:41.675Z,81.70
2018-10-03T06:13:47.506Z,81.80
2018-10-03T06:16:54.297Z,81.12
2018-10-03T06:20:00.063Z,81.41
2018-10-03T06:23:06.926Z,80.83
2018-10-03T06:26:12.018Z,80.82
2018-10-03T06:29:18.185Z,80.46
2018-10-03T06:32:23.966Z,80.18
2018-10-03T06:35:35.798Z,80.28
2018-10-03T06:38:49.010Z,80.29
2018-10-03T06:42:00.074Z,80.77
2018-10-03T06:45:08.137Z,81.25
2018-10-03T06:48:18.085Z,80.42
2018-10-03T06:51:28.927Z,80.47
2018-10-03T06:54:43.770Z,80.50
2018-10-03T06:57:54.110Z,80.62
2018-10-03T07:01:07.328Z,80.01
2018-10-03T07:04:18.913Z,79.05
2018-10-03T07:07:28.030Z,79.61
2018-10-03T07:10:38.186Z,78.85
2018-10-03T07:13:46.239Z,79.54
2018-10-03T07:17:00.803Z,78.51
2018-10-03T07:20:06.911Z,77.84
2018-10-03T07:23:12.735Z,78.11
2018-10-03T07:55:27.300Z,78.46
2018-10-03T07:58:33.530Z,77.46
2018-10-03T08:01:38.550Z,76.21
2018-10-03T08:04:43.607Z,75.13
2018-10-03T08:07:53.838Z,74.78
2018-10-03T08:10:59.943Z,72.51
2018-10-03T08:14:05.815Z,73.35
2018-10-03T08:17:10.860Z,71.13
2018-10-03T08:20:17.003Z,71.29
2018-10-03T08:23:23.594Z,69.25
2018-10-03T08:26:29.352Z,67.84
2018-10-03T08:29:42.725Z,64.77
2018-10-03T08:33:00.159Z,64.49
2018-10-03T08:36:14.169Z,63.65
2018-10-03T08:39:30.114Z,63.09
2018-10-03T08:47:58.197Z,64.58
2018-10-03T08:51:08.259Z,63.18
2018-10-03T08:54:20.274Z,61.64
2018-10-03T08:57:34.329Z,62.62
2018-10-03T09:00:44.452Z,62.49
2018-10-03T09:03:56.942Z,64.08
2018-10-03T09:07:08.517Z,64.83
2018-10-03T09:10:52.001Z,64.47
2018-10-03T09:14:02.918Z,63.72
2018-10-03T09:17:17.477Z,62.11
2018-10-03T09:20:29.771Z,61.97
2018-10-03T09:23:56.616Z,60.75
2018-10-03T09:27:09.309Z,59.37
2018-10-03T09:30:19.740Z,58.85
2018-10-03T09:33:30.963Z,59.21
2018-10-03T09:36:40.358Z,58.61
2018-10-03T09:39:59.077Z,59.59
2018-10-03T09:43:08.328Z,57.38
2018-10-03T09:46:18.725Z,57.22
2018-10-03T09:49:28.333Z,57.13
2018-10-03T09:52:40.270Z,57.53
2018-10-03T10:08:12.996Z,59.65
2018-10-03T10:11:24.720Z,58.95
2018-10-03T10:14:33.815Z,55.42
2018-10-03T10:17:43.668Z,55.80
2018-10-03T10:20:55.031Z,56.47
2018-10-03T10:24:05.775Z,56.65
2018-10-03T10:27:17.446Z,54.96
2018-10-03T10:30:27.508Z,55.96
2018-10-03T10:33:39.352Z,56.33
2018-10-03T10:36:52.652Z,55.57
2018-10-03T10:40:03.080Z,57.00
2018-10-03T10:43:16.697Z,55.74
2018-10-03T10:46:25.564Z,53.46
2018-10-03T10:49:41.757Z,53.91
2018-10-03T10:52:51.603Z,51.89
2018-10-03T10:55:59.728Z,54.00
2018-10-03T10:59:04.791Z,48.95
2018-10-03T11:02:11.008Z,49.34
2018-10-03T11:05:17.226Z,48.60
2018-10-03T11:08:30.003Z,51.04
2018-10-03T11:11:35.549Z,51.72
2018-10-03T11:14:42.157Z,49.69
2018-10-03T11:17:48.185Z,51.63
2018-10-03T11:20:53.223Z,49.02
2018-10-03T11:23:59.256Z,48.79
2018-10-03T11:27:06.194Z,49.26
2018-10-03T11:30:11.286Z,48.69
2018-10-03T11:33:17.150Z,49.09
2018-10-03T11:36:25.810Z,48.53
2018-10-03T11:39:30.861Z,49.10
2018-10-03T11:42:36.688Z,51.53
2018-10-03T11:45:44.392Z,49.31
2018-10-03T11:48:57.063Z,50.53
2018-10-03T11:52:06.939Z,48.13
2018-10-03T11:55:16.864Z,46.57
2018-10-03T11:58:27.353Z,45.96
2018-10-03T12:01:41.404Z,47.17
2018-10-03T12:04:49.945Z,44.73
2018-10-03T12:08:00.453Z,46.80
2018-10-03T12:15:02.995Z,43.86
2018-10-03T12:18:15.109Z,44.23
2018-10-03T12:21:31.718Z,43.68
2018-10-03T12:24:41.852Z,44.60
2018-10-03T12:27:50.976Z,41.82
2018-10-03T12:31:05.580Z,41.54
2018-10-03T12:34:16.107Z,40.84
2018-10-03T12:37:30.859Z,43.84
2018-10-03T12:40:40.221Z,44.20
2018-10-03T12:43:50.544Z,44.62
2018-10-03T12:46:59.404Z,39.37
2018-10-03T12:50:12.864Z,42.21
2018-10-03T12:53:24.825Z,40.12
2018-10-03T12:56:38.175Z,40.22
2018-10-03T12:59:48.052Z,39.75
2018-10-03T13:03:00.722Z,40.13
2018-10-03T13:06:12.313Z,41.92
2018-10-03T13:09:21.953Z,40.38
2018-10-03T13:12:38.626Z,41.50
2018-10-03T13:15:53.673Z,45.21
2018-10-03T13:19:00.835Z,42.53
2018-10-03T13:22:10.695Z,43.37
2018-10-03T13:25:20.465Z,43.38
2018-10-03T13:28:29.049Z,44.18
2018-10-03T13:31:44.302Z,43.08
2018-10-03T13:34:53.962Z,41.46
2018-10-03T13:38:08.995Z,43.55
2018-10-03T13:41:19.511Z,39.75
2018-10-03T13:44:30.651Z,39.98
2018-10-03T13:47:39.216Z,39.68
2018-10-03T13:50:48.319Z,40.51
2018-10-03T13:53:57.674Z,41.08
2018-10-03T13:57:10.211Z,40.16
2018-10-03T14:00:17.366Z,38.97
2018-10-03T14:03:29.007Z,38.09
2018-10-03T14:06:38.558Z,39.72
2018-10-03T14:09:48.271Z,40.52
2018-10-03T14:12:57.159Z,37.77
2018-10-03T14:16:06.596Z,40.95
2018-10-03T14:19:20.225Z,38.66
2018-10-03T14:22:29.210Z,40.10
2018-10-03T14:25:39.008Z,41.09
2018-10-03T14:28:50.230Z,40.88
2018-10-03T14:32:03.506Z,40.07
2018-10-03T14:35:18.217Z,41.50
2018-10-03T14:38:29.326Z,40.97
2018-10-03T14:41:35.826Z,41.04
2018-10-03T14:44:44.945Z,39.53
2018-10-03T14:47:50.004Z,39.63
2018-10-03T14:50:54.981Z,41.30
2018-10-03T14:54:00.314Z,41.49
2018-10-03T14:57:08.423Z,42.13
2018-10-03T15:00:15.093Z,41.16
2018-10-03T15:03:21.275Z,42.15
2018-10-03T15:06:27.209Z,42.19
2018-10-03T15:09:32.298Z,43.43
2018-10-03T15:12:37.476Z,42.27
2018-10-03T15:15:43.743Z,42.79
2018-10-03T15:18:50.038Z,43.68
2018-10-03T15:21:56.422Z,41.51
2018-10-03T15:25:02.469Z,44.58
2018-10-03T15:28:08.470Z,44.58
2018-10-03T15:31:13.703Z,45.06
2018-10-03T15:34:20.434Z,43.97
2018-10-03T15:37:27.853Z,44.11
2018-10-03T15:40:33.874Z,45.88
2018-10-03T15:43:41.445Z,44.99
2018-10-03T15:46:48.439Z,44.87
2018-10-03T15:49:57.508Z,46.18
2018-10-03T15:53:03.594Z,45.30
2018-10-03T15:56:09.933Z,44.36
2018-10-03T15:59:15.049Z,44.37
2018-10-03T16:02:21.963Z,46.40
2018-10-03T16:05:28.214Z,44.67
2018-10-03T16:08:36.959Z,45.69
2018-10-03T16:11:43.320Z,45.68
2018-10-03T16:14:56.183Z,46.30
2018-10-03T16:18:03.174Z,47.26
2018-10-03T16:21:09.220Z,47.88
2018-10-03T16:24:15.520Z,47.83
2018-10-03T16:27:21.745Z,49.22
2018-10-03T16:30:27.982Z,49.61
2018-10-03T16:33:33.717Z,50.64
2018-10-03T16:36:39.413Z,51.76
2018-10-03T16:39:44.728Z,50.81
2018-10-03T16:42:51.335Z,50.93
2018-10-03T16:45:57.037Z,53.75
2018-10-03T16:49:02.429Z,54.57
2018-10-03T16:52:08.662Z,54.29
2018-10-03T16:55:15.003Z,56.33
2018-10-03T16:58:22.369Z,57.59
2018-10-03T17:01:28.577Z,57.49
2018-10-03T17:04:35.612Z,57.26
2018-10-03T17:07:41.090Z,57.45
2018-10-03T17:10:47.594Z,59.51
2018-10-03T17:14:02.960Z,59.51
2018-10-03T17:17:09.618Z,61.23
2018-10-03T17:20:15.394Z,62.16
2018-10-03T17:23:23.766Z,62.10
2018-10-03T17:26:30.955Z,61.87
2018-10-03T17:29:36.370Z,62.96
2018-10-03T17:43:41.472Z,65.79
2018-10-03T17:47:02.735Z,66.22
2018-10-03T17:50:15.152Z,67.41
2018-10-03T17:53:25.778Z,67.35
2018-10-03T17:56:32.727Z,68.51
2018-10-03T17:59:38.908Z,68.11
2018-10-03T18:02:44.990Z,68.86
2018-10-03T18:05:50.180Z,68.49
2018-10-03T18:12:27.277Z,69.61
2018-10-03T18:15:33.446Z,69.26
2018-10-03T18:18:40.610Z,69.89
2018-10-03T18:21:45.778Z,70.39
2018-10-03T18:24:53.143Z,71.07
2018-10-03T18:28:00.211Z,71.33
2018-10-03T18:31:13.104Z,70.93
2018-10-03T18:34:18.944Z,71.09
2018-10-03T18:37:28.140Z,71.49
2018-10-03T18:40:33.975Z,73.22
2018-10-03T18:43:40.313Z,73.25
2018-10-03T18:46:47.977Z,72.68
2018-10-03T18:49:53.849Z,74.18
2018-10-03T18:53:00.495Z,74.38
2018-10-03T18:56:06.704Z,73.74
2018-10-03T18:59:12.717Z,73.34
2018-10-03T19:02:25.727Z,74.65
2018-10-03T19:05:30.983Z,75.07
2018-10-03T19:08:36.876Z,75.11
2018-10-03T19:11:42.152Z,74.87
2018-10-03T19:14:47.213Z,75.37
2018-10-03T19:17:53.488Z,75.08
2018-10-03T19:21:01.617Z,76.29
2018-10-03T19:24:08.195Z,75.41
2018-10-03T19:27:13.842Z,76.68
2018-10-03T19:30:19.155Z,75.12
2018-10-03T19:33:25.353Z,76.68
2018-10-03T19:36:32.359Z,76.69
2018-10-03T19:39:44.776Z,77.04
2018-10-03T19:42:50.975Z,77.11
2018-10-03T19:45:58.022Z,78.15
2018-10-03T19:49:05.146Z,77.66
2018-10-03T19:52:11.162Z,78.13
2018-10-03T19:55:17.160Z,78.23
2018-10-03T19:58:23.953Z,78.06
2018-10-03T20:01:29.915Z,78.39
2018-10-03T20:04:35.801Z,78.56
2018-10-03T20:07:40.923Z,77.65
2018-10-03T20:10:47.316Z,77.81
2018-10-03T20:13:53.298Z,77.74
2018-10-03T20:17:00.167Z,78.03
2018-10-03T20:20:06.085Z,78.33
2018-10-03T20:23:12.182Z,78.72
2018-10-03T20:26:19.286Z,78.14
2018-10-03T20:29:25.436Z,79.16
2018-10-03T20:32:33.917Z,79.26
2018-10-03T20:35:39.674Z,79.84
2018-10-03T20:38:44.815Z,79.79
2018-10-03T20:41:49.913Z,79.18
2018-10-03T20:44:54.916Z,79.11
2018-10-03T20:48:00.746Z,80.43
2018-10-03T20:51:06.727Z,79.89
2018-10-03T20:54:11.783Z,80.41
2018-10-03T20:57:16.929Z,80.69
2018-10-03T21:00:24.111Z,81.09
2018-10-03T21:03:31.141Z,80.38
2018-10-03T21:06:36.600Z,80.67
2018-10-03T21:09:42.975Z,79.57
2018-10-03T21:15:02.097Z,81.20
2018-10-03T21:18:08.104Z,81.59
2018-10-03T21:21:14.409Z,80.31
2018-10-03T21:24:20.682Z,79.79
2018-10-03T21:27:26.528Z,80.02
2018-10-03T21:30:32.539Z,79.95
2018-10-03T21:33:37.594Z,80.12
2018-10-03T21:36:44.504Z,79.84
2018-10-03T21:39:50.471Z,80.10
2018-10-03T21:42:55.453Z,80.39
2018-10-03T21:46:00.444Z,80.75
2018-10-03T21:49:05.621Z,80.96
2018-10-03T21:52:13.205Z,81.82
2018-10-03T21:55:19.397Z,80.72
2018-10-03T21:58:25.050Z,81.44
2018-10-03T22:01:32.603Z,79.77
2018-10-03T22:04:37.621Z,81.39
2018-10-03T22:07:43.934Z,81.16
2018-10-03T22:10:49.942Z,81.46
2018-10-03T22:13:55.015Z,81.10
2018-10-03T22:17:01.005Z,81.35
2018-10-03T22:20:07.038Z,80.71
2018-10-03T22:23:13.662Z,80.04
2018-10-03T22:26:19.366Z,81.34
2018-10-03T22:29:25.269Z,81.66
2018-10-03T22:32:31.261Z,81.16
2018-10-03T22:35:36.941Z,81.07
2018-10-03T22:38:45.049Z,82.19
2018-10-03T22:41:52.007Z,81.19
2018-10-03T22:44:57.814Z,80.75
2018-10-03T22:48:10.642Z,82.12
2018-10-03T22:51:16.779Z,81.82
2018-10-03T22:54:24.263Z,81.03
2018-10-03T22:57:30.022Z,80.73
2018-10-03T23:00:35.778Z,81.11
2018-10-03T23:03:41.814Z,81.22
2018-10-03T23:06:47.478Z,81.58
2018-10-03T23:09:53.141Z,81.67
2018-10-03T23:12:58.148Z,82.08
2018-10-03T23:16:04.245Z,82.11
2018-10-03T23:19:09.997Z,81.95
2018-10-03T23:22:15.850Z,81.43
2018-10-03T23:25:20.989Z,81.34
2018-10-03T23:28:27.986Z,82.46
2018-10-03T23:31:34.201Z,81.53
2018-10-03T23:34:40.079Z,82.28
2018-10-03T23:37:46.145Z,82.25
2018-10-03T23:40:56.599Z,81.52
2018-10-03T23:44:02.444Z,82.07
2018-10-03T23:47:15.306Z,81.08
2018-10-03T23:50:21.249Z,81.94
2018-10-03T23:53:33.133Z,81.41
2018-10-03T23:56:39.418Z,82.37
2018-10-03T23:59:45.561Z,82.78
